sensor_id;sensor_type;location;lat;lon;timestamp;temperature;humidity
45579;DHT22;31293;51.390;12.254;2024-01-07T00:00:19;-0.60;99.90
45579;DHT22;31293;51.390;12.254;2024-01-07T00:02:22;-0.60;99.90
45579;DHT22;31293;51.390;12.254;2024-01-07T00:04:24;-0.60;99.90
45579;DHT22;31293;51.390;12.254;2024-01-07T00:06:26;-0.60;99.90
45579;DHT22;31293;51.390;12.254;2024-01-07T00:08:27;-0.70;99.90
45579;DHT22;31293;51.390;12.254;2024-01-07T00:10:29;-0.60;99.90
45579;DHT22;31293;51.390;12.254;2024-01-07T00:12:31;-0.60;99.90
45579;DHT22;31293;51.390;12.254;2024-01-07T00:14:33;-0.60;99.90
45579;DHT22;31293;51.390;12.254;2024-01-07T00:16:35;-0.60;99.90
45579;DHT22;31293;51.390;12.254;2024-01-07T00:18:37;-0.70;99.90
45579;DHT22;31293;51.390;12.254;2024-01-07T00:20:41;-0.70;99.90
45579;DHT22;31293;51.390;12.254;2024-01-07T00:22:46;-0.70;99.90
45579;DHT22;31293;51.390;12.254;2024-01-07T00:24:48;-0.70;99.90
45579;DHT22;31293;51.390;12.254;2024-01-07T00:26:50;-0.70;99.90
45579;DHT22;31293;51.390;12.254;2024-01-07T00:28:51;-0.80;99.90
45579;DHT22;31293;51.390;12.254;2024-01-07T00:30:53;-0.80;99.90
45579;DHT22;31293;51.390;12.254;2024-01-07T00:32:56;-0.80;99.90
45579;DHT22;31293;51.390;12.254;2024-01-07T00:34:58;-0.80;99.90
45579;DHT22;31293;51.390;12.254;2024-01-07T00:37:03;-0.80;99.90
45579;DHT22;31293;51.390;12.254;2024-01-07T00:39:05;-0.80;99.90
45579;DHT22;31293;51.390;12.254;2024-01-07T00:41:07;-0.80;99.90
45579;DHT22;31293;51.390;12.254;2024-01-07T00:43:12;-0.80;99.90
45579;DHT22;31293;51.390;12.254;2024-01-07T00:45:14;-0.80;99.90
45579;DHT22;31293;51.390;12.254;2024-01-07T00:47:16;-0.80;99.90
45579;DHT22;31293;51.390;12.254;2024-01-07T00:49:19;-0.80;99.90
45579;DHT22;31293;51.390;12.254;2024-01-07T00:51:21;-0.80;99.90
45579;DHT22;31293;51.390;12.254;2024-01-07T00:53:23;-0.80;99.90
45579;DHT22;31293;51.390;12.254;2024-01-07T00:55:25;-0.80;99.90
45579;DHT22;31293;51.390;12.254;2024-01-07T00:57:27;-0.80;99.90
45579;DHT22;31293;51.390;12.254;2024-01-07T00:59:29;-0.80;99.90
45579;DHT22;31293;51.390;12.254;2024-01-07T01:01:31;-0.80;99.90
45579;DHT22;31293;51.390;12.254;2024-01-07T01:03:34;-0.80;99.90
45579;DHT22;31293;51.390;12.254;2024-01-07T01:05:36;-0.80;99.90
45579;DHT22;31293;51.390;12.254;2024-01-07T01:07:39;-0.80;99.90
45579;DHT22;31293;51.390;12.254;2024-01-07T01:09:42;-0.80;99.90
45579;DHT22;31293;51.390;12.254;2024-01-07T01:11:44;-0.90;99.90
45579;DHT22;31293;51.390;12.254;2024-01-07T01:13:46;-0.90;99.90
45579;DHT22;31293;51.390;12.254;2024-01-07T01:15:48;-0.90;99.90
45579;DHT22;31293;51.390;12.254;2024-01-07T01:17:50;-0.90;99.90
45579;DHT22;31293;51.390;12.254;2024-01-07T01:19:52;-0.90;99.90
45579;DHT22;31293;51.390;12.254;2024-01-07T01:21:54;-1.00;99.90
45579;DHT22;31293;51.390;12.254;2024-01-07T01:23:55;-1.00;99.90
45579;DHT22;31293;51.390;12.254;2024-01-07T01:25:57;-1.00;99.90
45579;DHT22;31293;51.390;12.254;2024-01-07T01:27:59;-1.00;99.90
45579;DHT22;31293;51.390;12.254;2024-01-07T01:30:01;-1.00;99.90
45579;DHT22;31293;51.390;12.254;2024-01-07T01:32:04;-1.00;99.90
45579;DHT22;31293;51.390;12.254;2024-01-07T01:34:07;-1.10;99.90
45579;DHT22;31293;51.390;12.254;2024-01-07T01:36:10;-1.10;99.90
45579;DHT22;31293;51.390;12.254;2024-01-07T01:38:12;-1.10;99.90
45579;DHT22;31293;51.390;12.254;2024-01-07T01:40:16;-1.10;99.90
45579;DHT22;31293;51.390;12.254;2024-01-07T01:42:18;-1.10;99.90
45579;DHT22;31293;51.390;12.254;2024-01-07T01:44:20;-1.10;99.90
45579;DHT22;31293;51.390;12.254;2024-01-07T01:46:22;-1.00;99.90
45579;DHT22;31293;51.390;12.254;2024-01-07T01:48:26;-1.10;99.90
45579;DHT22;31293;51.390;12.254;2024-01-07T01:50:28;-1.10;99.90
45579;DHT22;31293;51.390;12.254;2024-01-07T01:52:30;-1.00;99.90
45579;DHT22;31293;51.390;12.254;2024-01-07T01:54:33;-1.10;99.90
45579;DHT22;31293;51.390;12.254;2024-01-07T01:56:35;-1.10;99.90
45579;DHT22;31293;51.390;12.254;2024-01-07T01:58:37;-1.10;99.90
45579;DHT22;31293;51.390;12.254;2024-01-07T02:00:39;-1.10;99.90
45579;DHT22;31293;51.390;12.254;2024-01-07T02:02:41;-1.10;99.90
45579;DHT22;31293;51.390;12.254;2024-01-07T02:04:43;-1.10;99.90
45579;DHT22;31293;51.390;12.254;2024-01-07T02:06:46;-1.10;99.90
45579;DHT22;31293;51.390;12.254;2024-01-07T02:08:48;-1.10;99.90
45579;DHT22;31293;51.390;12.254;2024-01-07T02:10:50;-1.10;99.90
45579;DHT22;31293;51.390;12.254;2024-01-07T02:12:52;-1.10;99.90
45579;DHT22;31293;51.390;12.254;2024-01-07T02:14:54;-1.10;99.90
45579;DHT22;31293;51.390;12.254;2024-01-07T02:16:56;-1.10;99.90
45579;DHT22;31293;51.390;12.254;2024-01-07T02:18:58;-1.20;99.90
45579;DHT22;31293;51.390;12.254;2024-01-07T02:21:01;-1.10;99.90
45579;DHT22;31293;51.390;12.254;2024-01-07T02:23:03;-1.20;99.90
45579;DHT22;31293;51.390;12.254;2024-01-07T02:25:06;-1.10;99.90
45579;DHT22;31293;51.390;12.254;2024-01-07T02:27:08;-1.10;99.90
45579;DHT22;31293;51.390;12.254;2024-01-07T02:29:10;-1.10;99.90
45579;DHT22;31293;51.390;12.254;2024-01-07T02:31:12;-1.20;99.90
45579;DHT22;31293;51.390;12.254;2024-01-07T02:33:14;-1.20;99.90
45579;DHT22;31293;51.390;12.254;2024-01-07T02:35:16;-1.20;99.90
45579;DHT22;31293;51.390;12.254;2024-01-07T02:37:18;-1.20;99.90
45579;DHT22;31293;51.390;12.254;2024-01-07T02:39:20;-1.20;99.90
45579;DHT22;31293;51.390;12.254;2024-01-07T02:41:22;-1.20;99.90
45579;DHT22;31293;51.390;12.254;2024-01-07T02:43:27;-1.20;99.90
45579;DHT22;31293;51.390;12.254;2024-01-07T02:45:29;-1.20;99.90
45579;DHT22;31293;51.390;12.254;2024-01-07T02:47:31;-1.20;99.90
45579;DHT22;31293;51.390;12.254;2024-01-07T02:49:32;-1.20;99.90
45579;DHT22;31293;51.390;12.254;2024-01-07T02:51:34;-1.20;99.90
45579;DHT22;31293;51.390;12.254;2024-01-07T02:53:36;-1.20;99.90
45579;DHT22;31293;51.390;12.254;2024-01-07T02:55:38;-1.20;99.90
45579;DHT22;31293;51.390;12.254;2024-01-07T02:57:40;-1.20;99.90
45579;DHT22;31293;51.390;12.254;2024-01-07T02:59:42;-1.20;99.90
45579;DHT22;31293;51.390;12.254;2024-01-07T03:01:44;-1.30;99.90
45579;DHT22;31293;51.390;12.254;2024-01-07T03:03:46;-1.30;99.90
45579;DHT22;31293;51.390;12.254;2024-01-07T03:05:48;-1.30;99.90
45579;DHT22;31293;51.390;12.254;2024-01-07T03:07:50;-1.30;99.90
45579;DHT22;31293;51.390;12.254;2024-01-07T03:09:52;-1.30;99.90
45579;DHT22;31293;51.390;12.254;2024-01-07T03:11:54;-1.30;99.90
45579;DHT22;31293;51.390;12.254;2024-01-07T03:13:56;-1.30;99.90
45579;DHT22;31293;51.390;12.254;2024-01-07T03:15:58;-1.30;99.90
45579;DHT22;31293;51.390;12.254;2024-01-07T03:18:00;-1.40;99.90
45579;DHT22;31293;51.390;12.254;2024-01-07T03:20:02;-1.40;99.90
45579;DHT22;31293;51.390;12.254;2024-01-07T03:22:04;-1.50;99.90
45579;DHT22;31293;51.390;12.254;2024-01-07T03:24:08;-1.50;99.90
45579;DHT22;31293;51.390;12.254;2024-01-07T03:26:10;-1.50;99.90
45579;DHT22;31293;51.390;12.254;2024-01-07T03:28:12;-1.50;99.90
45579;DHT22;31293;51.390;12.254;2024-01-07T03:30:14;-1.50;99.90
45579;DHT22;31293;51.390;12.254;2024-01-07T03:32:16;-1.50;99.90
45579;DHT22;31293;51.390;12.254;2024-01-07T03:34:19;-1.50;99.90
45579;DHT22;31293;51.390;12.254;2024-01-07T03:36:21;-1.50;99.90
45579;DHT22;31293;51.390;12.254;2024-01-07T03:38:23;-1.50;99.90
45579;DHT22;31293;51.390;12.254;2024-01-07T03:40:25;-1.50;99.90
45579;DHT22;31293;51.390;12.254;2024-01-07T03:42:27;-1.50;99.90
45579;DHT22;31293;51.390;12.254;2024-01-07T03:44:29;-1.50;99.90
45579;DHT22;31293;51.390;12.254;2024-01-07T03:46:31;-1.50;99.90
45579;DHT22;31293;51.390;12.254;2024-01-07T03:48:33;-1.50;99.90
45579;DHT22;31293;51.390;12.254;2024-01-07T03:50:35;-1.50;99.90
45579;DHT22;31293;51.390;12.254;2024-01-07T03:52:37;-1.50;99.90
45579;DHT22;31293;51.390;12.254;2024-01-07T03:54:38;-1.60;99.90
45579;DHT22;31293;51.390;12.254;2024-01-07T03:56:40;-1.60;99.90
45579;DHT22;31293;51.390;12.254;2024-01-07T03:58:42;-1.60;99.90
45579;DHT22;31293;51.390;12.254;2024-01-07T04:00:44;-1.60;99.90
45579;DHT22;31293;51.390;12.254;2024-01-07T04:02:46;-1.60;99.90
45579;DHT22;31293;51.390;12.254;2024-01-07T04:04:48;-1.60;99.90
45579;DHT22;31293;51.390;12.254;2024-01-07T04:06:50;-1.60;99.90
45579;DHT22;31293;51.390;12.254;2024-01-07T04:08:52;-1.70;99.90
45579;DHT22;31293;51.390;12.254;2024-01-07T04:10:54;-1.70;99.90
45579;DHT22;31293;51.390;12.254;2024-01-07T04:12:57;-1.70;99.90
45579;DHT22;31293;51.390;12.254;2024-01-07T04:14:59;-1.70;99.90
45579;DHT22;31293;51.390;12.254;2024-01-07T04:17:01;-1.70;99.90
45579;DHT22;31293;51.390;12.254;2024-01-07T04:19:03;-1.70;99.90
45579;DHT22;31293;51.390;12.254;2024-01-07T04:21:09;-1.70;99.90
45579;DHT22;31293;51.390;12.254;2024-01-07T04:23:11;-1.70;99.90
45579;DHT22;31293;51.390;12.254;2024-01-07T04:25:13;-1.70;99.90
45579;DHT22;31293;51.390;12.254;2024-01-07T04:27:14;-1.70;99.90
45579;DHT22;31293;51.390;12.254;2024-01-07T04:29:16;-1.80;99.90
45579;DHT22;31293;51.390;12.254;2024-01-07T04:31:18;-1.80;99.90
45579;DHT22;31293;51.390;12.254;2024-01-07T04:33:20;-1.80;99.90
45579;DHT22;31293;51.390;12.254;2024-01-07T04:35:22;-1.80;99.90
45579;DHT22;31293;51.390;12.254;2024-01-07T04:37:24;-1.70;99.90
45579;DHT22;31293;51.390;12.254;2024-01-07T04:39:26;-1.80;99.90
45579;DHT22;31293;51.390;12.254;2024-01-07T04:41:28;-1.70;99.90
45579;DHT22;31293;51.390;12.254;2024-01-07T04:43:30;-1.70;99.90
45579;DHT22;31293;51.390;12.254;2024-01-07T04:45:32;-1.80;99.90
45579;DHT22;31293;51.390;12.254;2024-01-07T04:47:33;-1.80;99.90
45579;DHT22;31293;51.390;12.254;2024-01-07T04:49:36;-1.80;99.90
45579;DHT22;31293;51.390;12.254;2024-01-07T04:51:40;-1.80;99.90
45579;DHT22;31293;51.390;12.254;2024-01-07T04:53:41;-1.80;99.90
45579;DHT22;31293;51.390;12.254;2024-01-07T04:55:43;-1.80;99.90
45579;DHT22;31293;51.390;12.254;2024-01-07T04:57:45;-1.80;99.90
45579;DHT22;31293;51.390;12.254;2024-01-07T04:59:49;-1.80;99.90
45579;DHT22;31293;51.390;12.254;2024-01-07T05:01:50;-1.80;99.90
45579;DHT22;31293;51.390;12.254;2024-01-07T05:03:52;-1.80;99.90
45579;DHT22;31293;51.390;12.254;2024-01-07T05:05:55;-1.80;99.90
45579;DHT22;31293;51.390;12.254;2024-01-07T05:07:56;-1.80;99.90
45579;DHT22;31293;51.390;12.254;2024-01-07T05:10:00;-1.80;99.90
45579;DHT22;31293;51.390;12.254;2024-01-07T05:12:03;-1.80;99.90
45579;DHT22;31293;51.390;12.254;2024-01-07T05:14:05;-1.80;99.90
45579;DHT22;31293;51.390;12.254;2024-01-07T05:16:07;-1.80;99.90
45579;DHT22;31293;51.390;12.254;2024-01-07T05:18:08;-1.80;99.90
45579;DHT22;31293;51.390;12.254;2024-01-07T05:20:11;-1.80;99.90
45579;DHT22;31293;51.390;12.254;2024-01-07T05:22:13;-1.80;99.90
45579;DHT22;31293;51.390;12.254;2024-01-07T05:24:15;-1.80;99.90
45579;DHT22;31293;51.390;12.254;2024-01-07T05:26:17;-1.80;99.90
45579;DHT22;31293;51.390;12.254;2024-01-07T05:28:19;-1.80;99.90
45579;DHT22;31293;51.390;12.254;2024-01-07T05:30:22;-1.80;99.90
45579;DHT22;31293;51.390;12.254;2024-01-07T05:32:24;-1.90;99.90
45579;DHT22;31293;51.390;12.254;2024-01-07T05:34:27;-1.80;99.90
45579;DHT22;31293;51.390;12.254;2024-01-07T05:36:29;-1.80;99.90
45579;DHT22;31293;51.390;12.254;2024-01-07T05:38:33;-1.90;99.90
45579;DHT22;31293;51.390;12.254;2024-01-07T05:40:38;-1.90;99.90
45579;DHT22;31293;51.390;12.254;2024-01-07T05:42:40;-1.80;99.90
45579;DHT22;31293;51.390;12.254;2024-01-07T05:44:42;-1.90;99.90
45579;DHT22;31293;51.390;12.254;2024-01-07T05:46:44;-1.90;99.90
45579;DHT22;31293;51.390;12.254;2024-01-07T05:48:47;-1.90;99.90
45579;DHT22;31293;51.390;12.254;2024-01-07T05:50:50;-1.90;99.90
45579;DHT22;31293;51.390;12.254;2024-01-07T05:52:52;-1.90;99.90
45579;DHT22;31293;51.390;12.254;2024-01-07T05:54:54;-1.90;99.90
45579;DHT22;31293;51.390;12.254;2024-01-07T05:56:56;-1.90;99.90
45579;DHT22;31293;51.390;12.254;2024-01-07T05:58:58;-1.90;99.90
45579;DHT22;31293;51.390;12.254;2024-01-07T06:01:00;-1.90;99.90
45579;DHT22;31293;51.390;12.254;2024-01-07T06:03:02;-1.90;99.90
45579;DHT22;31293;51.390;12.254;2024-01-07T06:05:04;-1.90;99.90
45579;DHT22;31293;51.390;12.254;2024-01-07T06:07:06;-1.90;99.90
45579;DHT22;31293;51.390;12.254;2024-01-07T06:09:10;-1.90;99.90
45579;DHT22;31293;51.390;12.254;2024-01-07T06:11:12;-1.90;99.90
45579;DHT22;31293;51.390;12.254;2024-01-07T06:13:20;-1.90;99.90
45579;DHT22;31293;51.390;12.254;2024-01-07T06:15:21;-1.90;99.90
45579;DHT22;31293;51.390;12.254;2024-01-07T06:17:23;-1.90;99.90
45579;DHT22;31293;51.390;12.254;2024-01-07T06:19:25;-1.90;99.90
45579;DHT22;31293;51.390;12.254;2024-01-07T06:21:27;-1.90;99.90
45579;DHT22;31293;51.390;12.254;2024-01-07T06:23:31;-1.90;99.90
45579;DHT22;31293;51.390;12.254;2024-01-07T06:25:33;-2.00;99.90
45579;DHT22;31293;51.390;12.254;2024-01-07T06:27:36;-2.00;99.90
45579;DHT22;31293;51.390;12.254;2024-01-07T06:29:38;-2.00;99.90
45579;DHT22;31293;51.390;12.254;2024-01-07T06:31:43;-2.00;99.90
45579;DHT22;31293;51.390;12.254;2024-01-07T06:33:48;-2.00;99.90
45579;DHT22;31293;51.390;12.254;2024-01-07T06:35:51;-2.00;99.90
45579;DHT22;31293;51.390;12.254;2024-01-07T06:37:53;-2.00;99.90
45579;DHT22;31293;51.390;12.254;2024-01-07T06:39:57;-2.10;99.90
45579;DHT22;31293;51.390;12.254;2024-01-07T06:42:02;-2.10;99.90
45579;DHT22;31293;51.390;12.254;2024-01-07T06:44:06;-2.10;99.90
45579;DHT22;31293;51.390;12.254;2024-01-07T06:46:18;-2.10;99.90
45579;DHT22;31293;51.390;12.254;2024-01-07T06:48:20;-2.10;99.90
45579;DHT22;31293;51.390;12.254;2024-01-07T06:50:22;-2.20;99.90
45579;DHT22;31293;51.390;12.254;2024-01-07T06:52:25;-2.20;99.90
45579;DHT22;31293;51.390;12.254;2024-01-07T06:54:31;-2.10;99.90
45579;DHT22;31293;51.390;12.254;2024-01-07T06:56:33;-2.20;99.90
45579;DHT22;31293;51.390;12.254;2024-01-07T06:58:35;-2.20;99.90
45579;DHT22;31293;51.390;12.254;2024-01-07T07:00:37;-2.20;99.90
45579;DHT22;31293;51.390;12.254;2024-01-07T07:02:40;-2.20;99.90
45579;DHT22;31293;51.390;12.254;2024-01-07T07:04:42;-2.20;99.90
45579;DHT22;31293;51.390;12.254;2024-01-07T07:06:44;-2.30;99.90
45579;DHT22;31293;51.390;12.254;2024-01-07T07:08:46;-2.30;99.90
45579;DHT22;31293;51.390;12.254;2024-01-07T07:10:50;-2.30;99.90
45579;DHT22;31293;51.390;12.254;2024-01-07T07:12:52;-2.30;99.90
45579;DHT22;31293;51.390;12.254;2024-01-07T07:14:54;-2.30;99.90
45579;DHT22;31293;51.390;12.254;2024-01-07T07:16:55;-2.30;99.90
45579;DHT22;31293;51.390;12.254;2024-01-07T07:18:57;-2.30;99.90
45579;DHT22;31293;51.390;12.254;2024-01-07T07:20:59;-2.40;99.90
45579;DHT22;31293;51.390;12.254;2024-01-07T07:23:01;-2.40;99.90
45579;DHT22;31293;51.390;12.254;2024-01-07T07:25:03;-2.40;99.90
45579;DHT22;31293;51.390;12.254;2024-01-07T07:27:07;-2.40;99.90
45579;DHT22;31293;51.390;12.254;2024-01-07T07:29:09;-2.40;99.90
45579;DHT22;31293;51.390;12.254;2024-01-07T07:31:13;-2.40;99.90
45579;DHT22;31293;51.390;12.254;2024-01-07T07:33:15;-2.50;99.90
45579;DHT22;31293;51.390;12.254;2024-01-07T07:35:17;-2.50;99.90
45579;DHT22;31293;51.390;12.254;2024-01-07T07:37:19;-2.50;99.90
45579;DHT22;31293;51.390;12.254;2024-01-07T07:39:22;-2.50;99.90
45579;DHT22;31293;51.390;12.254;2024-01-07T07:41:24;-2.50;99.90
45579;DHT22;31293;51.390;12.254;2024-01-07T07:43:26;-2.50;99.90
45579;DHT22;31293;51.390;12.254;2024-01-07T07:45:28;-2.60;99.90
45579;DHT22;31293;51.390;12.254;2024-01-07T07:47:30;-2.60;99.90
45579;DHT22;31293;51.390;12.254;2024-01-07T07:49:32;-2.60;99.90
45579;DHT22;31293;51.390;12.254;2024-01-07T07:51:34;-2.50;99.90
45579;DHT22;31293;51.390;12.254;2024-01-07T07:53:38;-2.50;99.90
45579;DHT22;31293;51.390;12.254;2024-01-07T07:55:41;-2.50;99.90
45579;DHT22;31293;51.390;12.254;2024-01-07T07:57:43;-2.50;99.90
45579;DHT22;31293;51.390;12.254;2024-01-07T07:59:46;-2.50;99.90
45579;DHT22;31293;51.390;12.254;2024-01-07T08:01:47;-2.50;99.90
45579;DHT22;31293;51.390;12.254;2024-01-07T08:03:49;-2.60;99.90
45579;DHT22;31293;51.390;12.254;2024-01-07T08:05:51;-2.60;99.90
45579;DHT22;31293;51.390;12.254;2024-01-07T08:07:53;-2.60;99.90
45579;DHT22;31293;51.390;12.254;2024-01-07T08:09:56;-2.60;99.90
45579;DHT22;31293;51.390;12.254;2024-01-07T08:11:59;-2.70;99.90
45579;DHT22;31293;51.390;12.254;2024-01-07T08:14:02;-2.70;99.90
45579;DHT22;31293;51.390;12.254;2024-01-07T08:16:04;-2.70;99.90
45579;DHT22;31293;51.390;12.254;2024-01-07T08:18:12;-2.70;99.90
45579;DHT22;31293;51.390;12.254;2024-01-07T08:20:14;-2.70;99.90
45579;DHT22;31293;51.390;12.254;2024-01-07T08:22:16;-2.70;99.90
45579;DHT22;31293;51.390;12.254;2024-01-07T08:24:18;-2.70;99.90
45579;DHT22;31293;51.390;12.254;2024-01-07T08:26:20;-2.80;99.90
45579;DHT22;31293;51.390;12.254;2024-01-07T08:28:22;-2.80;99.90
45579;DHT22;31293;51.390;12.254;2024-01-07T08:30:24;-2.80;99.90
45579;DHT22;31293;51.390;12.254;2024-01-07T08:32:26;-2.90;99.90
45579;DHT22;31293;51.390;12.254;2024-01-07T08:34:28;-2.90;99.90
45579;DHT22;31293;51.390;12.254;2024-01-07T08:36:31;-2.90;99.90
45579;DHT22;31293;51.390;12.254;2024-01-07T08:38:33;-2.90;99.90
45579;DHT22;31293;51.390;12.254;2024-01-07T08:40:34;-2.90;99.90
45579;DHT22;31293;51.390;12.254;2024-01-07T08:42:36;-2.90;99.90
45579;DHT22;31293;51.390;12.254;2024-01-07T08:44:38;-2.90;99.90
45579;DHT22;31293;51.390;12.254;2024-01-07T08:46:41;-2.90;99.90
45579;DHT22;31293;51.390;12.254;2024-01-07T08:48:42;-2.90;99.90
45579;DHT22;31293;51.390;12.254;2024-01-07T08:50:44;-2.90;99.90
45579;DHT22;31293;51.390;12.254;2024-01-07T08:52:48;-2.80;99.90
45579;DHT22;31293;51.390;12.254;2024-01-07T08:54:49;-2.80;99.90
45579;DHT22;31293;51.390;12.254;2024-01-07T08:56:51;-2.70;99.90
45579;DHT22;31293;51.390;12.254;2024-01-07T08:58:53;-2.70;99.90
45579;DHT22;31293;51.390;12.254;2024-01-07T09:00:55;-2.70;99.90
45579;DHT22;31293;51.390;12.254;2024-01-07T09:02:57;-2.70;99.90
45579;DHT22;31293;51.390;12.254;2024-01-07T09:04:59;-2.70;99.90
45579;DHT22;31293;51.390;12.254;2024-01-07T09:07:01;-2.70;99.90
45579;DHT22;31293;51.390;12.254;2024-01-07T09:09:03;-2.70;99.90
45579;DHT22;31293;51.390;12.254;2024-01-07T09:11:07;-2.70;99.90
45579;DHT22;31293;51.390;12.254;2024-01-07T09:13:12;-2.80;99.90
45579;DHT22;31293;51.390;12.254;2024-01-07T09:15:14;-2.70;99.90
45579;DHT22;31293;51.390;12.254;2024-01-07T09:17:19;-2.60;99.90
45579;DHT22;31293;51.390;12.254;2024-01-07T09:19:21;-2.50;99.90
45579;DHT22;31293;51.390;12.254;2024-01-07T09:21:23;-2.60;99.90
45579;DHT22;31293;51.390;12.254;2024-01-07T09:23:25;-2.60;99.90
45579;DHT22;31293;51.390;12.254;2024-01-07T09:25:27;-2.50;99.90
45579;DHT22;31293;51.390;12.254;2024-01-07T09:27:30;-2.50;99.90
45579;DHT22;31293;51.390;12.254;2024-01-07T09:29:32;-2.40;99.90
45579;DHT22;31293;51.390;12.254;2024-01-07T09:31:33;-2.40;99.90
45579;DHT22;31293;51.390;12.254;2024-01-07T09:33:35;-2.50;99.90
45579;DHT22;31293;51.390;12.254;2024-01-07T09:35:37;-2.50;99.90
45579;DHT22;31293;51.390;12.254;2024-01-07T09:37:39;-2.40;99.90
45579;DHT22;31293;51.390;12.254;2024-01-07T09:39:41;-2.40;99.90
45579;DHT22;31293;51.390;12.254;2024-01-07T09:41:43;-2.30;99.90
45579;DHT22;31293;51.390;12.254;2024-01-07T09:43:45;-2.30;99.90
45579;DHT22;31293;51.390;12.254;2024-01-07T09:45:47;-2.20;99.90
45579;DHT22;31293;51.390;12.254;2024-01-07T09:47:50;-2.10;99.90
45579;DHT22;31293;51.390;12.254;2024-01-07T09:49:53;-2.20;99.90
45579;DHT22;31293;51.390;12.254;2024-01-07T09:51:59;-2.40;99.90
45579;DHT22;31293;51.390;12.254;2024-01-07T09:54:03;-2.30;99.90
45579;DHT22;31293;51.390;12.254;2024-01-07T09:56:12;-2.30;99.80
45579;DHT22;31293;51.390;12.254;2024-01-07T09:58:18;-2.30;99.70
45579;DHT22;31293;51.390;12.254;2024-01-07T10:00:20;-2.20;99.80
45579;DHT22;31293;51.390;12.254;2024-01-07T10:02:22;-2.10;99.90
45579;DHT22;31293;51.390;12.254;2024-01-07T10:04:25;-2.10;99.90
45579;DHT22;31293;51.390;12.254;2024-01-07T10:06:28;-2.10;99.90
45579;DHT22;31293;51.390;12.254;2024-01-07T10:08:30;-2.10;99.60
45579;DHT22;31293;51.390;12.254;2024-01-07T10:10:33;-2.20;99.20
45579;DHT22;31293;51.390;12.254;2024-01-07T10:12:36;-2.20;99.20
45579;DHT22;31293;51.390;12.254;2024-01-07T10:14:38;-2.20;98.70
45579;DHT22;31293;51.390;12.254;2024-01-07T10:16:42;-2.30;98.30
45579;DHT22;31293;51.390;12.254;2024-01-07T10:18:43;-2.30;98.20
45579;DHT22;31293;51.390;12.254;2024-01-07T10:20:45;-2.10;98.90
45579;DHT22;31293;51.390;12.254;2024-01-07T10:22:51;-2.00;98.00
45579;DHT22;31293;51.390;12.254;2024-01-07T10:24:53;-1.90;97.90
45579;DHT22;31293;51.390;12.254;2024-01-07T10:26:55;-1.90;97.00
45579;DHT22;31293;51.390;12.254;2024-01-07T10:28:57;-1.90;97.40
45579;DHT22;31293;51.390;12.254;2024-01-07T10:30:59;-1.70;98.00
45579;DHT22;31293;51.390;12.254;2024-01-07T10:33:02;-1.70;97.00
45579;DHT22;31293;51.390;12.254;2024-01-07T10:35:05;-1.70;97.20
45579;DHT22;31293;51.390;12.254;2024-01-07T10:37:08;-1.80;97.00
45579;DHT22;31293;51.390;12.254;2024-01-07T10:39:12;-1.70;97.40
45579;DHT22;31293;51.390;12.254;2024-01-07T10:41:14;-1.70;97.30
45579;DHT22;31293;51.390;12.254;2024-01-07T10:43:19;-1.60;97.50
45579;DHT22;31293;51.390;12.254;2024-01-07T10:45:22;-1.40;97.90
45579;DHT22;31293;51.390;12.254;2024-01-07T10:47:34;-1.60;96.90
45579;DHT22;31293;51.390;12.254;2024-01-07T10:49:40;-1.50;97.10
45579;DHT22;31293;51.390;12.254;2024-01-07T10:54:02;-1.50;96.80
45579;DHT22;31293;51.390;12.254;2024-01-07T10:56:05;-1.50;97.00
45579;DHT22;31293;51.390;12.254;2024-01-07T10:58:10;-1.50;97.10
45579;DHT22;31293;51.390;12.254;2024-01-07T11:00:13;-1.50;96.30
45579;DHT22;31293;51.390;12.254;2024-01-07T11:02:23;-1.40;96.70
45579;DHT22;31293;51.390;12.254;2024-01-07T11:04:40;-1.60;96.90
45579;DHT22;31293;51.390;12.254;2024-01-07T11:09:06;-1.20;97.10
45579;DHT22;31293;51.390;12.254;2024-01-07T11:11:17;-1.10;96.50
45579;DHT22;31293;51.390;12.254;2024-01-07T11:13:52;-0.90;96.70
45579;DHT22;31293;51.390;12.254;2024-01-07T11:15:56;-1.10;96.30
45579;DHT22;31293;51.390;12.254;2024-01-07T11:18:00;-1.10;95.60
45579;DHT22;31293;51.390;12.254;2024-01-07T11:20:05;-1.20;95.10
45579;DHT22;31293;51.390;12.254;2024-01-07T11:22:28;-1.20;95.40
45579;DHT22;31293;51.390;12.254;2024-01-07T11:24:43;-1.40;95.40
45579;DHT22;31293;51.390;12.254;2024-01-07T11:26:45;-1.40;95.80
45579;DHT22;31293;51.390;12.254;2024-01-07T11:28:52;-1.50;95.50
45579;DHT22;31293;51.390;12.254;2024-01-07T11:30:55;-1.60;95.90
45579;DHT22;31293;51.390;12.254;2024-01-07T11:32:58;-1.60;95.80
45579;DHT22;31293;51.390;12.254;2024-01-07T11:35:02;-1.60;96.30
45579;DHT22;31293;51.390;12.254;2024-01-07T11:37:07;-1.70;96.30
45579;DHT22;31293;51.390;12.254;2024-01-07T11:39:09;-1.80;96.30
45579;DHT22;31293;51.390;12.254;2024-01-07T11:41:13;-1.90;96.20
45579;DHT22;31293;51.390;12.254;2024-01-07T11:43:15;-2.00;96.00
45579;DHT22;31293;51.390;12.254;2024-01-07T11:45:17;-2.10;96.20
45579;DHT22;31293;51.390;12.254;2024-01-07T11:47:20;-2.10;97.00
45579;DHT22;31293;51.390;12.254;2024-01-07T11:49:22;-2.10;97.30
45579;DHT22;31293;51.390;12.254;2024-01-07T11:51:28;-1.80;97.10
45579;DHT22;31293;51.390;12.254;2024-01-07T11:53:32;-1.70;96.60
45579;DHT22;31293;51.390;12.254;2024-01-07T11:55:35;-1.50;95.90
45579;DHT22;31293;51.390;12.254;2024-01-07T11:57:38;-1.30;95.70
45579;DHT22;31293;51.390;12.254;2024-01-07T11:59:40;-1.10;95.20
45579;DHT22;31293;51.390;12.254;2024-01-07T12:01:45;-1.20;95.20
45579;DHT22;31293;51.390;12.254;2024-01-07T12:03:47;-1.20;95.30
45579;DHT22;31293;51.390;12.254;2024-01-07T12:05:50;-1.40;95.70
45579;DHT22;31293;51.390;12.254;2024-01-07T12:07:52;-1.40;95.40
45579;DHT22;31293;51.390;12.254;2024-01-07T12:09:57;-1.40;96.00
45579;DHT22;31293;51.390;12.254;2024-01-07T12:12:00;-1.40;95.20
45579;DHT22;31293;51.390;12.254;2024-01-07T12:14:02;-1.60;95.10
45579;DHT22;31293;51.390;12.254;2024-01-07T12:16:06;-1.80;95.40
45579;DHT22;31293;51.390;12.254;2024-01-07T12:18:09;-1.80;95.70
45579;DHT22;31293;51.390;12.254;2024-01-07T12:20:11;-1.90;95.20
45579;DHT22;31293;51.390;12.254;2024-01-07T12:22:13;-1.90;95.70
45579;DHT22;31293;51.390;12.254;2024-01-07T12:24:15;-1.90;95.60
45579;DHT22;31293;51.390;12.254;2024-01-07T12:26:17;-1.90;95.40
45579;DHT22;31293;51.390;12.254;2024-01-07T12:28:21;-2.00;95.10
45579;DHT22;31293;51.390;12.254;2024-01-07T12:30:27;-2.00;95.30
45579;DHT22;31293;51.390;12.254;2024-01-07T12:32:32;-1.90;95.50
45579;DHT22;31293;51.390;12.254;2024-01-07T12:34:34;-2.00;95.70
45579;DHT22;31293;51.390;12.254;2024-01-07T12:36:38;-1.90;96.00
45579;DHT22;31293;51.390;12.254;2024-01-07T12:38:41;-1.90;95.00
45579;DHT22;31293;51.390;12.254;2024-01-07T12:40:43;-1.90;95.60
45579;DHT22;31293;51.390;12.254;2024-01-07T12:42:45;-1.80;95.40
45579;DHT22;31293;51.390;12.254;2024-01-07T12:44:48;-1.80;95.60
45579;DHT22;31293;51.390;12.254;2024-01-07T12:46:50;-1.70;95.50